AIB29C EDHI-EDHI
Flight info
| Callsign | AIB29C |
|---|---|
| Flight time | N/A |
| Altitude | 39000 |
| Route | ELSOB2W ELSOB DCT LAZOQ DCT 54N007E DCT DOROR DCT REXMI DCT BADOS DCT BOGMU DCT HAM |
| Aircraft | A343/H-SDE2E3FGHIJ4J5M1RWXY/LB1D1 |
Departure
| Time | 2026-04-22 13:47 |
|---|---|
| Airport | Hamburg-Finkenwerder Airport (EDHI) |
Arrival
| Time | N/A |
|---|---|
| Airport | Hamburg-Finkenwerder Airport (EDHI) |
| Time | Latitude | Longitude | Altitude | Speed | Heading |
|---|---|---|---|---|---|
| 2026-04-22 13:27 | 53.53755 | 9.82656 | 25 ft | 0 kts | 18° |
| 2026-04-22 13:35 | 53.53750 | 9.82654 | 29 ft | 3 kts | 19° |
| 2026-04-22 13:35 | 53.53730 | 9.82639 | 31 ft | 3 kts | 27° |
| 2026-04-22 13:36 | 53.53712 | 9.82620 | 30 ft | 3 kts | 42° |
| 2026-04-22 13:36 | 53.53698 | 9.82595 | 30 ft | 2 kts | 63° |
| 2026-04-22 13:36 | 53.53691 | 9.82564 | 30 ft | 3 kts | 84° |
| 2026-04-22 13:36 | 53.53691 | 9.82530 | 30 ft | 2 kts | 97° |
| 2026-04-22 13:37 | 53.53693 | 9.82509 | 30 ft | 1 kts | 101° |
| 2026-04-22 13:37 | 53.53694 | 9.82496 | 30 ft | 0 kts | 103° |
| 2026-04-22 13:37 | 53.53695 | 9.82487 | 30 ft | 0 kts | 103° |
| 2026-04-22 13:39 | 53.53694 | 9.82499 | 28 ft | 2 kts | 103° |
| 2026-04-22 13:40 | 53.53684 | 9.82560 | 28 ft | 7 kts | 106° |
| 2026-04-22 13:40 | 53.53662 | 9.82637 | 29 ft | 8 kts | 123° |
| 2026-04-22 13:40 | 53.53640 | 9.82682 | 31 ft | 0 kts | 130° |
| 2026-04-22 13:40 | 53.53639 | 9.82684 | 31 ft | 0 kts | 134° |
| 2026-04-22 13:41 | 53.53616 | 9.82718 | 28 ft | 9 kts | 139° |
| 2026-04-22 13:41 | 53.53559 | 9.82797 | 30 ft | 11 kts | 141° |
| 2026-04-22 13:41 | 53.53494 | 9.82882 | 30 ft | 13 kts | 141° |
| 2026-04-22 13:41 | 53.53422 | 9.82978 | 30 ft | 14 kts | 141° |
| 2026-04-22 13:42 | 53.53349 | 9.83088 | 30 ft | 14 kts | 120° |
| 2026-04-22 13:42 | 53.53376 | 9.83223 | 31 ft | 13 kts | 51° |
| 2026-04-22 13:42 | 53.53443 | 9.83365 | 28 ft | 17 kts | 52° |
| 2026-04-22 13:42 | 53.53520 | 9.83527 | 27 ft | 19 kts | 52° |
| 2026-04-22 13:43 | 53.53605 | 9.83705 | 29 ft | 20 kts | 52° |
| 2026-04-22 13:43 | 53.53692 | 9.83892 | 26 ft | 21 kts | 52° |
| 2026-04-22 13:43 | 53.53780 | 9.84080 | 29 ft | 21 kts | 52° |
| 2026-04-22 13:43 | 53.53868 | 9.84268 | 28 ft | 20 kts | 51° |
| 2026-04-22 13:44 | 53.53960 | 9.84461 | 27 ft | 22 kts | 51° |
| 2026-04-22 13:44 | 53.54057 | 9.84664 | 31 ft | 23 kts | 51° |
| 2026-04-22 13:44 | 53.54154 | 9.84871 | 27 ft | 23 kts | 51° |
| 2026-04-22 13:44 | 53.54226 | 9.84968 | 28 ft | 14 kts | 10° |
| 2026-04-22 13:45 | 53.54264 | 9.85048 | 29 ft | 4 kts | 119° |
| 2026-04-22 13:45 | 53.54248 | 9.85052 | 29 ft | 3 kts | 175° |
| 2026-04-22 13:45 | 53.54223 | 9.85017 | 29 ft | 9 kts | 227° |
| 2026-04-22 13:45 | 53.54217 | 9.85005 | 28 ft | 0 kts | 229° |
| 2026-04-22 13:46 | 53.54200 | 9.84973 | 28 ft | 17 kts | 229° |
| 2026-04-22 13:46 | 53.53994 | 9.84535 | 27 ft | 78 kts | 233° |
| 2026-04-22 13:46 | 53.53540 | 9.83575 | 26 ft | 130 kts | 231° |
| 2026-04-22 13:47 | 53.52910 | 9.82275 | 316 ft | 147 kts | 231° |
| 2026-04-22 13:47 | 53.52281 | 9.80959 | 936 ft | 148 kts | 234° |
| 2026-04-22 13:47 | 53.51599 | 9.79533 | 1299 ft | 168 kts | 234° |
| 2026-04-22 13:47 | 53.50814 | 9.77887 | 1639 ft | 193 kts | 233° |
| 2026-04-22 13:48 | 53.49944 | 9.76047 | 2172 ft | 207 kts | 233° |
| 2026-04-22 13:48 | 53.49070 | 9.73954 | 2459 ft | 234 kts | 245° |
| 2026-04-22 13:48 | 53.48728 | 9.71258 | 3065 ft | 243 kts | 277° |
| 2026-04-22 13:48 | 53.49378 | 9.68689 | 4081 ft | 242 kts | 310° |
| 2026-04-22 13:49 | 53.50773 | 9.67086 | 5032 ft | 247 kts | 337° |
| 2026-04-22 13:49 | 53.52399 | 9.66144 | 6038 ft | 250 kts | 340° |
| 2026-04-22 13:49 | 53.54034 | 9.65064 | 6960 ft | 254 kts | 336° |
| 2026-04-22 13:49 | 53.55651 | 9.63810 | 7843 ft | 259 kts | 337° |
| 2026-04-22 13:50 | 53.57354 | 9.62846 | 8704 ft | 264 kts | 345° |
| 2026-04-22 13:50 | 53.59150 | 9.62122 | 9779 ft | 268 kts | 346° |
| 2026-04-22 13:50 | 53.60918 | 9.61068 | 10722 ft | 274 kts | 335° |
| 2026-04-22 13:50 | 53.62607 | 9.59347 | 11203 ft | 297 kts | 322° |
| 2026-04-22 13:51 | 53.64117 | 9.56773 | 11586 ft | 320 kts | 308° |
| 2026-04-22 13:51 | 53.65290 | 9.53439 | 11966 ft | 344 kts | 296° |
| 2026-04-22 13:51 | 53.66081 | 9.49543 | 12570 ft | 359 kts | 287° |
| 2026-04-22 13:51 | 53.66575 | 9.45356 | 13351 ft | 368 kts | 281° |
| 2026-04-22 13:52 | 53.66911 | 9.41035 | 14132 ft | 376 kts | 279° |
| 2026-04-22 13:52 | 53.67190 | 9.36621 | 14824 ft | 382 kts | 279° |
| 2026-04-22 13:52 | 53.67470 | 9.32140 | 15549 ft | 386 kts | 279° |
| 2026-04-22 13:52 | 53.67767 | 9.27665 | 16261 ft | 391 kts | 280° |
| 2026-04-22 13:53 | 53.68095 | 9.23086 | 16971 ft | 395 kts | 280° |
| 2026-04-22 13:53 | 53.68444 | 9.18465 | 17684 ft | 399 kts | 281° |
| 2026-04-22 13:53 | 53.68808 | 9.13798 | 18395 ft | 404 kts | 281° |
| 2026-04-22 13:53 | 53.69179 | 9.09078 | 19008 ft | 408 kts | 281° |
| 2026-04-22 13:54 | 53.69555 | 9.04301 | 19571 ft | 412 kts | 281° |
| 2026-04-22 13:54 | 53.69932 | 8.99492 | 20132 ft | 417 kts | 281° |
| 2026-04-22 13:54 | 53.70311 | 8.94611 | 20679 ft | 421 kts | 281° |
| 2026-04-22 13:54 | 53.70688 | 8.89699 | 21224 ft | 425 kts | 281° |
| 2026-04-22 13:55 | 53.71062 | 8.84800 | 21764 ft | 428 kts | 281° |
| 2026-04-22 13:55 | 53.71441 | 8.79806 | 22322 ft | 430 kts | 281° |
| 2026-04-22 13:55 | 53.71820 | 8.74768 | 22835 ft | 434 kts | 281° |
| 2026-04-22 13:55 | 53.72201 | 8.69691 | 23338 ft | 438 kts | 281° |
| 2026-04-22 13:56 | 53.72583 | 8.64561 | 23836 ft | 442 kts | 281° |
| 2026-04-22 13:56 | 53.72964 | 8.59403 | 24256 ft | 445 kts | 281° |
| 2026-04-22 13:56 | 53.73347 | 8.54195 | 24667 ft | 448 kts | 281° |
| 2026-04-22 13:56 | 53.73730 | 8.48955 | 25073 ft | 451 kts | 281° |
| 2026-04-22 13:57 | 53.74114 | 8.43675 | 25486 ft | 454 kts | 280° |
| 2026-04-22 13:57 | 53.74493 | 8.38429 | 25870 ft | 457 kts | 280° |
| 2026-04-22 13:57 | 53.74875 | 8.33098 | 26268 ft | 459 kts | 281° |
| 2026-04-22 13:57 | 53.75257 | 8.27729 | 26704 ft | 460 kts | 281° |
| 2026-04-22 13:58 | 53.75639 | 8.22343 | 27067 ft | 463 kts | 281° |
| 2026-04-22 13:58 | 53.76020 | 8.16929 | 27421 ft | 466 kts | 281° |
| 2026-04-22 13:58 | 53.76403 | 8.11459 | 27787 ft | 469 kts | 280° |
| 2026-04-22 13:58 | 53.76784 | 8.05975 | 28129 ft | 471 kts | 280° |
| 2026-04-22 13:59 | 53.77165 | 8.00455 | 28479 ft | 474 kts | 280° |
| 2026-04-22 13:59 | 53.77545 | 7.94914 | 28822 ft | 476 kts | 280° |
| 2026-04-22 13:59 | 53.77920 | 7.89397 | 29157 ft | 479 kts | 280° |
| 2026-04-22 13:59 | 53.78299 | 7.83788 | 29458 ft | 481 kts | 280° |
| 2026-04-22 14:00 | 53.78676 | 7.78167 | 29784 ft | 483 kts | 280° |
| 2026-04-22 14:00 | 53.79054 | 7.72495 | 30079 ft | 486 kts | 279° |
| 2026-04-22 14:00 | 53.79430 | 7.66802 | 30395 ft | 488 kts | 279° |
| 2026-04-22 14:00 | 53.79813 | 7.61115 | 30755 ft | 487 kts | 281° |
| 2026-04-22 14:01 | 53.80466 | 7.55545 | 31099 ft | 483 kts | 289° |
| 2026-04-22 14:01 | 53.81573 | 7.50187 | 31431 ft | 479 kts | 297° |
| 2026-04-22 14:01 | 53.83111 | 7.45216 | 31752 ft | 476 kts | 303° |
| 2026-04-22 14:01 | 53.84790 | 7.40484 | 32045 ft | 476 kts | 305° |
| 2026-04-22 14:02 | 53.86556 | 7.35738 | 32336 ft | 476 kts | 306° |
| 2026-04-22 14:02 | 53.88345 | 7.31030 | 32618 ft | 476 kts | 306° |
| 2026-04-22 14:02 | 53.90141 | 7.26323 | 32956 ft | 475 kts | 306° |
| 2026-04-22 14:02 | 53.91931 | 7.21616 | 33261 ft | 476 kts | 306° |
| 2026-04-22 14:03 | 53.93747 | 7.16927 | 33548 ft | 475 kts | 309° |
| 2026-04-22 14:03 | 53.95827 | 7.12596 | 33839 ft | 472 kts | 316° |
| 2026-04-22 14:03 | 53.98229 | 7.08823 | 34110 ft | 468 kts | 325° |
| 2026-04-22 14:03 | 54.00911 | 7.05748 | 34391 ft | 465 kts | 334° |
| 2026-04-22 14:04 | 54.03797 | 7.03465 | 34613 ft | 462 kts | 343° |
| 2026-04-22 14:04 | 54.06879 | 7.01978 | 34789 ft | 460 kts | 352° |
| 2026-04-22 14:04 | 54.10044 | 7.01355 | 34966 ft | 457 kts | 1° |
| 2026-04-22 14:04 | 54.13206 | 7.01595 | 35203 ft | 454 kts | 10° |
| 2026-04-22 14:05 | 54.16339 | 7.02298 | 35396 ft | 455 kts | 8° |
| 2026-04-22 14:05 | 54.19506 | 7.02817 | 35439 ft | 458 kts | 8° |
| 2026-04-22 14:06 | 54.28985 | 7.04396 | 35442 ft | 455 kts | 8° |
| 2026-04-22 14:06 | 54.35257 | 7.05382 | 35439 ft | 456 kts | 8° |
| 2026-04-22 14:07 | 54.41584 | 7.06357 | 35439 ft | 456 kts | 8° |
| 2026-04-22 14:07 | 54.47910 | 7.07331 | 35441 ft | 457 kts | 8° |
| 2026-04-22 14:08 | 54.54240 | 7.08311 | 35441 ft | 457 kts | 8° |
| 2026-04-22 14:08 | 54.60566 | 7.09293 | 35441 ft | 457 kts | 8° |
| 2026-04-22 14:09 | 54.66900 | 7.10282 | 35441 ft | 457 kts | 9° |
| 2026-04-22 14:09 | 54.73204 | 7.11268 | 35442 ft | 457 kts | 9° |
| 2026-04-22 14:10 | 54.79544 | 7.12264 | 35437 ft | 457 kts | 9° |
| 2026-04-22 14:10 | 54.85885 | 7.13265 | 35434 ft | 458 kts | 9° |
| 2026-04-22 14:11 | 54.92116 | 7.15074 | 35430 ft | 451 kts | 21° |
| 2026-04-22 14:11 | 54.97627 | 7.19780 | 35432 ft | 441 kts | 39° |
| 2026-04-22 14:12 | 55.01914 | 7.27222 | 35428 ft | 435 kts | 57° |
| 2026-04-22 14:12 | 55.04567 | 7.36594 | 35413 ft | 431 kts | 74° |
| 2026-04-22 14:13 | 55.05307 | 7.46857 | 35424 ft | 428 kts | 95° |
| 2026-04-22 14:13 | 55.04553 | 7.51873 | 35421 ft | 430 kts | 111° |
| 2026-04-22 14:13 | 55.03157 | 7.56495 | 35418 ft | 432 kts | 116° |
| 2026-04-22 14:14 | 55.00791 | 7.66053 | 35426 ft | 434 kts | 103° |
| 2026-04-22 14:14 | 54.99824 | 7.76396 | 35419 ft | 434 kts | 96° |
| 2026-04-22 14:15 | 54.98601 | 7.86677 | 35413 ft | 436 kts | 105° |
| 2026-04-22 14:15 | 54.95952 | 7.96222 | 35409 ft | 443 kts | 121° |
| 2026-04-22 14:16 | 54.92128 | 8.04667 | 35404 ft | 446 kts | 126° |
| 2026-04-22 14:16 | 54.88047 | 8.12786 | 35402 ft | 447 kts | 127° |
| 2026-04-22 14:17 | 54.83970 | 8.20839 | 35415 ft | 446 kts | 127° |
| 2026-04-22 14:17 | 54.79899 | 8.28964 | 35071 ft | 447 kts | 127° |
| 2026-04-22 14:17 | 54.77861 | 8.33043 | 34601 ft | 447 kts | 127° |
| 2026-04-22 14:18 | 54.75829 | 8.37110 | 33952 ft | 445 kts | 127° |
| 2026-04-22 14:18 | 54.73820 | 8.41120 | 33217 ft | 436 kts | 127° |
| 2026-04-22 14:18 | 54.71828 | 8.45091 | 32261 ft | 440 kts | 127° |
| 2026-04-22 14:18 | 54.69811 | 8.49115 | 31442 ft | 443 kts | 127° |
| 2026-04-22 14:19 | 54.67789 | 8.53140 | 30699 ft | 444 kts | 127° |
| 2026-04-22 14:19 | 54.65787 | 8.57115 | 29897 ft | 446 kts | 127° |
| 2026-04-22 14:19 | 54.63748 | 8.61156 | 29037 ft | 447 kts | 127° |
| 2026-04-22 14:19 | 54.61701 | 8.65203 | 28206 ft | 448 kts | 127° |
| 2026-04-22 14:20 | 54.57599 | 8.73294 | 26601 ft | 449 kts | 127° |
| 2026-04-22 14:20 | 54.55537 | 8.77348 | 25853 ft | 447 kts | 128° |
| 2026-04-22 14:20 | 54.53502 | 8.81341 | 25111 ft | 443 kts | 128° |
| 2026-04-22 14:21 | 54.49467 | 8.89239 | 23642 ft | 435 kts | 128° |
| 2026-04-22 14:21 | 54.47476 | 8.93131 | 22815 ft | 432 kts | 128° |
| 2026-04-22 14:22 | 54.43570 | 9.00748 | 21241 ft | 424 kts | 128° |
| 2026-04-22 14:22 | 54.41621 | 9.04543 | 20462 ft | 421 kts | 128° |
| 2026-04-22 14:22 | 54.37808 | 9.12043 | 19026 ft | 413 kts | 124° |
| 2026-04-22 14:23 | 54.36205 | 9.16076 | 18262 ft | 406 kts | 119° |
| 2026-04-22 14:23 | 54.34736 | 9.20184 | 17444 ft | 401 kts | 117° |
| 2026-04-22 14:23 | 54.33345 | 9.24295 | 16660 ft | 396 kts | 116° |
| 2026-04-22 14:23 | 54.32001 | 9.28369 | 15897 ft | 392 kts | 116° |
| 2026-04-22 14:24 | 54.30675 | 9.32419 | 15143 ft | 388 kts | 116° |
| 2026-04-22 14:24 | 54.29360 | 9.36425 | 14426 ft | 384 kts | 116° |
| 2026-04-22 14:24 | 54.28054 | 9.40377 | 13625 ft | 380 kts | 117° |
| 2026-04-22 14:24 | 54.26768 | 9.44241 | 12850 ft | 377 kts | 117° |
| 2026-04-22 14:25 | 54.25473 | 9.48114 | 12081 ft | 373 kts | 117° |
| 2026-04-22 14:25 | 54.24186 | 9.51944 | 11546 ft | 371 kts | 117° |
| 2026-04-22 14:25 | 54.22899 | 9.55768 | 11370 ft | 370 kts | 117° |
| 2026-04-22 14:25 | 54.21618 | 9.59573 | 11364 ft | 368 kts | 117° |
| 2026-04-22 14:26 | 54.20344 | 9.63347 | 11356 ft | 366 kts | 117° |
| 2026-04-22 14:26 | 54.19078 | 9.67096 | 11351 ft | 364 kts | 117° |
| 2026-04-22 14:26 | 54.17815 | 9.70828 | 11350 ft | 362 kts | 117° |
| 2026-04-22 14:26 | 54.16573 | 9.74491 | 11347 ft | 360 kts | 117° |
| 2026-04-22 14:27 | 54.15319 | 9.78184 | 11351 ft | 359 kts | 117° |
| 2026-04-22 14:27 | 54.14056 | 9.81899 | 11354 ft | 359 kts | 117° |
| 2026-04-22 14:27 | 54.12817 | 9.85539 | 11357 ft | 358 kts | 117° |
| 2026-04-22 14:27 | 54.11570 | 9.89197 | 11357 ft | 357 kts | 117° |
| 2026-04-22 14:28 | 54.10297 | 9.92836 | 11357 ft | 357 kts | 121° |
| 2026-04-22 14:28 | 54.08696 | 9.96090 | 11353 ft | 360 kts | 136° |
| 2026-04-22 14:28 | 54.06611 | 9.98452 | 11308 ft | 365 kts | 155° |
| 2026-04-22 14:28 | 54.04172 | 9.99767 | 11013 ft | 374 kts | 165° |
| 2026-04-22 14:29 | 54.01607 | 10.00757 | 10353 ft | 376 kts | 167° |
| 2026-04-22 14:29 | 53.99070 | 10.01685 | 9566 ft | 372 kts | 167° |
| 2026-04-22 14:29 | 53.96553 | 10.02610 | 8906 ft | 367 kts | 167° |
| 2026-04-22 14:29 | 53.94092 | 10.03519 | 8400 ft | 365 kts | 167° |
| 2026-04-22 14:30 | 53.91620 | 10.04434 | 7900 ft | 362 kts | 167° |
| 2026-04-22 14:30 | 53.89173 | 10.05343 | 7405 ft | 360 kts | 167° |
| 2026-04-22 14:30 | 53.86726 | 10.06252 | 6917 ft | 358 kts | 167° |
| 2026-04-22 14:30 | 53.84299 | 10.07157 | 6393 ft | 356 kts | 167° |
| 2026-04-22 14:31 | 53.81914 | 10.08043 | 5653 ft | 352 kts | 167° |
| 2026-04-22 14:31 | 53.79512 | 10.08935 | 4894 ft | 348 kts | 168° |
| 2026-04-22 14:31 | 53.77170 | 10.09805 | 4126 ft | 342 kts | 168° |
| 2026-04-22 14:31 | 53.74916 | 10.10638 | 3609 ft | 317 kts | 169° |
| 2026-04-22 14:32 | 53.72880 | 10.11394 | 3398 ft | 281 kts | 170° |
| 2026-04-22 14:32 | 53.71042 | 10.11569 | 3369 ft | 264 kts | 188° |
| 2026-04-22 14:32 | 53.69813 | 10.11259 | 3364 ft | 267 kts | 193° |
| 2026-04-22 14:32 | 53.67982 | 10.10629 | 3346 ft | 268 kts | 194° |
| 2026-04-22 14:33 | 53.65632 | 10.09543 | 3331 ft | 264 kts | 212° |
| 2026-04-22 14:33 | 53.64344 | 10.07458 | 3346 ft | 255 kts | 238° |
| 2026-04-22 14:33 | 53.63359 | 10.04966 | 3148 ft | 258 kts | 241° |
| 2026-04-22 14:33 | 53.62703 | 10.03283 | 2896 ft | 259 kts | 239° |
| 2026-04-22 14:34 | 53.61662 | 10.00795 | 2515 ft | 261 kts | 237° |
| 2026-04-22 14:34 | 53.60539 | 9.98393 | 2159 ft | 261 kts | 233° |
| 2026-04-22 14:34 | 53.59400 | 9.96045 | 1794 ft | 255 kts | 236° |
| 2026-04-22 14:34 | 53.58361 | 9.93802 | 1460 ft | 230 kts | 235° |
| 2026-04-22 14:35 | 53.57415 | 9.91794 | 1191 ft | 208 kts | 234° |
| 2026-04-22 14:35 | 53.56559 | 9.89976 | 944 ft | 189 kts | 235° |
| 2026-04-22 14:35 | 53.55770 | 9.88300 | 672 ft | 176 kts | 235° |
| 2026-04-22 14:35 | 53.55044 | 9.86754 | 397 ft | 159 kts | 233° |
| 2026-04-22 14:36 | 53.54385 | 9.85397 | 180 ft | 142 kts | 235° |
| 2026-04-22 14:36 | 53.53814 | 9.84167 | 41 ft | 124 kts | 234° |